createdAt,value
2022-08-03T00:00:32.277Z,96727.38
2022-08-03T00:03:00.232Z,96731.44
2022-08-03T00:05:28.159Z,96722.19
2022-08-03T00:07:57.376Z,96722.59
2022-08-03T00:10:25.235Z,96728.31
2022-08-03T00:12:53.220Z,96727.13
2022-08-03T00:15:21.275Z,96728.31
2022-08-03T00:17:53.743Z,96728.13
2022-08-03T00:20:22.138Z,96729.84
2022-08-03T00:22:50.478Z,96725.84
2022-08-03T00:25:19.724Z,96726.53
2022-08-03T00:27:48.320Z,96730.69
2022-08-03T00:30:16.902Z,96726.53
2022-08-03T00:32:45.617Z,96717.28
2022-08-03T00:35:29.362Z,96722.66
2022-08-03T00:38:01.947Z,96730.22
2022-08-03T00:40:31.217Z,96726.88
2022-08-03T00:43:00.704Z,96721.03
2022-08-03T00:45:30.137Z,96720.19
2022-08-03T00:47:58.612Z,96713.19
2022-08-03T00:50:28.587Z,96713.34
2022-08-03T00:52:59.837Z,96713.03
2022-08-03T00:55:28.093Z,96720.75
2022-08-03T00:57:57.764Z,96720.22
2022-08-03T01:00:27.661Z,96717.72
2022-08-03T01:02:55.876Z,96712.53
2022-08-03T01:05:24.155Z,96714.19
2022-08-03T01:08:04.353Z,96704.00
2022-08-03T01:10:40.821Z,96713.06
2022-08-03T01:14:04.124Z,96703.34
2022-08-03T01:16:16.099Z,96696.84
2022-08-03T01:18:49.978Z,96703.38
2022-08-03T01:21:27.764Z,96705.38
2022-08-03T01:24:05.278Z,96703.88
2022-08-03T01:26:52.892Z,96699.72
2022-08-03T01:29:53.698Z,96691.84
2022-08-03T01:32:58.714Z,96692.84
2022-08-03T01:35:16.751Z,96694.50
2022-08-03T01:37:51.233Z,96683.84
2022-08-03T01:40:21.977Z,96687.50
2022-08-03T01:42:51.827Z,96685.19
2022-08-03T01:45:23.429Z,96686.38
2022-08-03T01:47:52.636Z,96690.06
2022-08-03T01:50:25.515Z,96683.06
2022-08-03T01:52:55.740Z,96686.56
2022-08-03T01:55:27.338Z,96678.38
2022-08-03T01:58:04.683Z,96678.22
2022-08-03T02:00:38.088Z,96681.88
2022-08-03T02:03:07.753Z,96674.53
2022-08-03T02:05:36.987Z,96673.16
2022-08-03T02:08:06.551Z,96675.53
2022-08-03T02:10:37.217Z,96676.50
2022-08-03T02:13:07.815Z,96679.88
2022-08-03T02:15:38.199Z,96678.88
2022-08-03T02:18:08.621Z,96672.53
2022-08-03T02:20:38.936Z,96679.38
2022-08-03T02:23:07.518Z,96674.53
2022-08-03T02:25:38.810Z,96675.72
2022-08-03T02:28:09.917Z,96669.34
2022-08-03T02:30:42.055Z,96675.03
2022-08-03T02:33:19.564Z,96671.19
2022-08-03T02:35:49.679Z,96672.22
2022-08-03T02:38:22.236Z,96675.88
2022-08-03T02:40:52.546Z,96668.69
2022-08-03T02:43:24.176Z,96671.72
2022-08-03T02:45:54.627Z,96670.03
2022-08-03T02:48:26.393Z,96672.38
2022-08-03T02:50:56.115Z,96672.03
2022-08-03T02:53:26.012Z,96669.22
2022-08-03T02:55:56.463Z,96664.19
2022-08-03T02:58:25.768Z,96664.81
2022-08-03T03:00:56.237Z,96667.38
2022-08-03T03:03:25.624Z,96668.00
2022-08-03T03:05:57.803Z,96670.06
2022-08-03T03:08:29.217Z,96670.88
2022-08-03T03:10:59.279Z,96663.69
2022-08-03T03:13:29.274Z,96666.69
2022-08-03T03:16:02.256Z,96666.03
2022-08-03T03:18:33.372Z,96663.81
2022-08-03T03:21:03.773Z,96665.81
2022-08-03T03:23:33.003Z,96669.03
2022-08-03T03:26:02.378Z,96664.31
2022-08-03T03:28:31.528Z,96660.16
2022-08-03T03:31:01.766Z,96665.16
2022-08-03T03:33:29.667Z,96664.34
2022-08-03T03:35:59.560Z,96663.31
2022-08-03T03:38:28.084Z,96663.66
2022-08-03T03:40:56.757Z,96662.16
2022-08-03T03:43:25.777Z,96673.19
2022-08-03T03:45:54.202Z,96668.84
2022-08-03T03:48:23.523Z,96664.16
2022-08-03T03:50:51.645Z,96658.47
2022-08-03T03:53:19.771Z,96663.81
2022-08-03T03:55:59.238Z,96660.66
2022-08-03T03:58:32.257Z,96664.31
2022-08-03T04:01:00.472Z,96665.00
2022-08-03T04:03:29.784Z,96665.69
2022-08-03T04:06:16.124Z,96662.31
2022-08-03T04:09:13.384Z,96663.00
2022-08-03T04:11:44.719Z,96666.81
2022-08-03T04:14:15.954Z,96662.81
2022-08-03T04:16:48.234Z,96673.19
2022-08-03T04:19:23.291Z,96677.34
2022-08-03T04:21:56.901Z,96676.50
2022-08-03T04:24:28.122Z,96673.50
2022-08-03T04:26:57.259Z,96673.19
2022-08-03T04:29:27.807Z,96675.03
2022-08-03T04:31:57.713Z,96682.38
2022-08-03T04:34:27.062Z,96679.69
2022-08-03T04:37:00.104Z,96682.38
2022-08-03T04:39:31.023Z,96686.53
2022-08-03T04:42:08.149Z,96692.56
2022-08-03T04:44:39.042Z,96691.56
2022-08-03T04:47:07.273Z,96690.06
2022-08-03T04:49:38.624Z,96690.91
2022-08-03T04:52:09.969Z,96693.22
2022-08-03T04:54:41.988Z,96693.06
2022-08-03T04:57:09.931Z,96696.09
2022-08-03T04:59:54.671Z,96693.56
2022-08-03T05:02:26.067Z,96691.38
2022-08-03T05:04:55.369Z,96707.63
2022-08-03T05:07:24.761Z,96693.75
2022-08-03T05:09:53.686Z,96696.75
2022-08-03T05:12:32.752Z,96695.44
2022-08-03T05:15:01.253Z,96695.75
2022-08-03T05:17:29.676Z,96691.59
2022-08-03T05:19:58.993Z,96691.56
2022-08-03T05:22:26.898Z,96697.13
2022-08-03T05:24:54.795Z,96699.81
2022-08-03T05:27:22.725Z,96698.63
2022-08-03T05:29:51.499Z,96701.63
2022-08-03T05:32:19.930Z,96704.66
2022-08-03T05:34:47.935Z,96706.47
2022-08-03T05:37:17.205Z,96701.28
2022-08-03T05:39:45.047Z,96698.59
2022-08-03T05:42:12.939Z,96704.94
2022-08-03T05:44:42.083Z,96700.06
2022-08-03T05:47:09.999Z,96703.25
2022-08-03T05:49:37.903Z,96703.88
2022-08-03T05:52:12.951Z,96704.88
2022-08-03T05:54:56.764Z,96698.63
2022-08-03T05:57:25.631Z,96705.00
2022-08-03T05:59:57.731Z,96696.44
2022-08-03T06:02:26.737Z,96696.06
2022-08-03T06:04:54.665Z,96699.72
2022-08-03T06:07:22.780Z,96698.84
2022-08-03T06:10:35.079Z,96705.00
2022-08-03T06:12:41.335Z,96701.09
2022-08-03T06:15:11.561Z,96703.94
2022-08-03T06:17:46.824Z,96703.03
2022-08-03T06:20:14.757Z,96705.47
2022-08-03T06:22:50.745Z,96705.41
2022-08-03T06:25:21.461Z,96704.38
2022-08-03T06:27:49.416Z,96707.28
2022-08-03T06:30:21.333Z,96703.53
2022-08-03T06:32:52.135Z,96709.47
2022-08-03T06:35:20.581Z,96695.81
2022-08-03T06:37:50.169Z,96697.59
2022-08-03T06:40:21.869Z,96697.16
2022-08-03T06:42:52.562Z,96694.38
2022-08-03T06:45:20.637Z,96693.28
2022-08-03T06:47:49.007Z,96698.53
2022-08-03T06:50:19.032Z,96698.13
2022-08-03T06:52:48.583Z,96708.59
2022-08-03T06:55:16.659Z,96701.94
2022-08-03T06:57:45.919Z,96705.16
2022-08-03T07:00:14.825Z,96708.19
2022-08-03T07:02:43.123Z,96703.72
2022-08-03T07:05:12.449Z,96714.34
2022-08-03T07:07:41.062Z,96713.25
2022-08-03T07:10:10.114Z,96711.34
2022-08-03T07:12:55.855Z,96706.53
2022-08-03T07:15:54.413Z,96709.56
2022-08-03T07:18:14.201Z,96713.78
2022-08-03T07:20:42.242Z,96706.72
2022-08-03T07:23:16.079Z,96704.25
2022-08-03T07:25:47.260Z,96705.34
2022-08-03T07:28:15.536Z,96707.13
2022-08-03T07:30:44.855Z,96700.72
2022-08-03T07:33:12.700Z,96709.38
2022-08-03T07:35:40.830Z,96701.06
2022-08-03T07:38:08.713Z,96711.47
2022-08-03T07:40:36.782Z,96713.56
2022-08-03T07:43:05.044Z,96705.97
2022-08-03T07:45:33.157Z,96702.44
2022-08-03T07:48:02.543Z,96698.59
2022-08-03T07:50:30.482Z,96700.38
2022-08-03T07:52:59.766Z,96708.69
2022-08-03T07:55:28.652Z,96712.44
2022-08-03T07:58:04.956Z,96704.81
2022-08-03T08:00:33.003Z,96701.97
2022-08-03T08:03:02.757Z,96706.50
2022-08-03T08:05:30.649Z,96707.75
2022-08-03T08:07:58.645Z,96703.19
2022-08-03T08:10:26.691Z,96701.09
2022-08-03T08:12:54.751Z,96702.81
2022-08-03T08:15:22.787Z,96694.91
2022-08-03T08:17:53.497Z,96700.91
2022-08-03T08:20:27.943Z,96694.50
2022-08-03T08:22:58.264Z,96697.38
2022-08-03T08:25:29.491Z,96697.41
2022-08-03T08:28:30.573Z,96701.94
2022-08-03T08:30:46.049Z,96689.88
2022-08-03T08:33:23.286Z,96693.03
2022-08-03T08:35:54.432Z,96698.38
2022-08-03T08:38:22.862Z,96695.69
2022-08-03T08:40:51.040Z,96703.97
2022-08-03T08:43:18.991Z,96693.38
2022-08-03T08:45:50.128Z,96698.72
2022-08-03T08:48:23.471Z,96698.50
2022-08-03T08:50:56.630Z,96694.94
2022-08-03T08:53:27.916Z,96694.34
2022-08-03T08:56:00.692Z,96694.75
2022-08-03T08:58:32.608Z,96693.09
2022-08-03T09:01:00.854Z,96690.75
2022-08-03T09:03:29.966Z,96698.22
2022-08-03T09:06:02.264Z,96695.22
2022-08-03T09:08:31.261Z,96689.25
2022-08-03T09:10:59.433Z,96692.47
2022-08-03T09:13:27.583Z,96688.50
2022-08-03T09:16:16.964Z,96695.94
2022-08-03T09:18:46.459Z,96686.59
2022-08-03T09:21:34.275Z,96687.75
2022-08-03T09:24:06.231Z,96687.75
2022-08-03T09:26:37.879Z,96688.59
2022-08-03T09:29:13.934Z,96694.59
2022-08-03T09:31:44.701Z,96693.84
2022-08-03T09:34:14.303Z,96689.94
2022-08-03T09:36:45.857Z,96688.44
2022-08-03T09:39:16.207Z,96685.59
2022-08-03T09:41:45.737Z,96684.81
2022-08-03T09:44:16.158Z,96685.03
2022-08-03T09:46:55.680Z,96675.97
2022-08-03T09:49:24.368Z,96682.38
2022-08-03T09:52:31.494Z,96678.31
2022-08-03T09:54:43.080Z,96687.50
2022-08-03T09:57:22.974Z,96682.25
2022-08-03T09:59:53.887Z,96679.28
2022-08-03T10:02:41.700Z,96681.78
2022-08-03T10:05:19.450Z,96675.59
2022-08-03T10:07:50.765Z,96679.97
2022-08-03T10:10:31.110Z,96672.41
2022-08-03T10:13:01.201Z,96670.00
2022-08-03T10:16:21.201Z,96669.72
2022-08-03T10:18:17.632Z,96662.94
2022-08-03T10:20:50.413Z,96665.00
2022-08-03T10:23:21.528Z,96652.25
2022-08-03T10:25:53.769Z,96655.09
2022-08-03T10:28:23.239Z,96648.47
2022-08-03T10:30:52.684Z,96652.47
2022-08-03T10:33:51.329Z,96651.91
2022-08-03T10:36:14.327Z,96652.69
2022-08-03T10:38:52.413Z,96647.03
2022-08-03T10:41:21.668Z,96644.69
2022-08-03T10:43:54.015Z,96645.19
2022-08-03T10:46:22.527Z,96640.69
2022-08-03T10:48:52.755Z,96640.00
2022-08-03T10:51:22.049Z,96642.91
2022-08-03T10:53:54.546Z,96644.72
2022-08-03T10:57:12.396Z,96633.69
2022-08-03T11:00:05.117Z,96628.50
2022-08-03T11:03:08.584Z,96630.72
2022-08-03T11:05:42.017Z,96632.34
2022-08-03T11:08:20.598Z,96628.00
2022-08-03T11:10:51.053Z,96629.00
2022-08-03T11:13:21.356Z,96624.63
2022-08-03T11:15:52.882Z,96622.75
2022-08-03T11:18:28.333Z,96622.13
2022-08-03T11:20:58.244Z,96628.06
2022-08-03T11:24:03.940Z,96619.00
2022-08-03T11:26:34.166Z,96619.94
2022-08-03T11:29:28.254Z,96608.97
2022-08-03T11:31:56.180Z,96614.72
2022-08-03T11:34:24.643Z,96617.88
2022-08-03T11:37:28.723Z,96608.75
2022-08-03T11:39:58.049Z,96606.66
2022-08-03T11:42:45.666Z,96601.72
2022-08-03T11:45:14.961Z,96607.63
2022-08-03T11:47:50.169Z,96610.22
2022-08-03T11:50:20.150Z,96602.91
2022-08-03T11:52:48.956Z,96597.91
2022-08-03T11:55:20.446Z,96600.88
2022-08-03T11:59:17.091Z,96605.97
2022-08-03T12:00:38.295Z,96602.91
2022-08-03T12:03:08.738Z,96601.81
2022-08-03T12:05:42.213Z,96601.13
2022-08-03T12:08:33.139Z,96593.06
2022-08-03T12:11:03.062Z,96590.84
2022-08-03T12:14:33.069Z,96594.25
2022-08-03T12:16:29.697Z,96592.13
2022-08-03T12:18:58.714Z,96598.88
2022-08-03T12:21:26.698Z,96594.25
2022-08-03T12:23:59.028Z,96591.78
2022-08-03T12:26:27.616Z,96595.19
2022-08-03T12:28:57.322Z,96589.53
2022-08-03T12:31:25.756Z,96582.91
2022-08-03T12:33:59.460Z,96581.97
2022-08-03T12:36:28.334Z,96581.25
2022-08-03T12:38:57.812Z,96579.47
2022-08-03T12:41:31.145Z,96585.72
2022-08-03T12:44:00.666Z,96578.06
2022-08-03T12:46:34.374Z,96577.72
2022-08-03T12:49:06.600Z,96575.31
2022-08-03T12:51:36.245Z,96563.03
2022-08-03T12:54:05.967Z,96562.91
2022-08-03T12:56:34.196Z,96561.38
2022-08-03T12:59:32.494Z,96557.94
2022-08-03T13:02:04.316Z,96560.19
2022-08-03T13:04:34.557Z,96565.97
2022-08-03T13:07:05.016Z,96569.19
2022-08-03T13:09:43.165Z,96562.69
2022-08-03T13:12:13.146Z,96563.03
2022-08-03T13:14:43.165Z,96560.50
2022-08-03T13:17:11.678Z,96563.19
2022-08-03T13:19:40.624Z,96555.41
2022-08-03T13:22:16.230Z,96556.63
2022-08-03T13:24:45.469Z,96550.00
2022-08-03T13:27:22.507Z,96549.84
2022-08-03T13:30:03.994Z,96551.25
2022-08-03T13:32:32.072Z,96547.38
2022-08-03T13:35:00.164Z,96542.84
2022-08-03T13:37:28.177Z,96540.69
2022-08-03T13:40:02.218Z,96539.88
2022-08-03T13:42:32.284Z,96541.22
2022-08-03T13:45:01.056Z,96531.16
2022-08-03T13:47:30.872Z,96536.50
2022-08-03T13:50:00.932Z,96531.63
2022-08-03T13:52:34.968Z,96530.22
2022-08-03T13:55:03.667Z,96524.88
2022-08-03T13:58:06.273Z,96524.50
2022-08-03T14:00:27.044Z,96523.41
2022-08-03T14:03:06.701Z,96516.31
2022-08-03T14:05:38.694Z,96507.88
2022-08-03T14:08:07.871Z,96502.56
2022-08-03T14:10:38.698Z,96504.28
2022-08-03T14:13:07.275Z,96505.00
2022-08-03T14:15:37.936Z,96502.19
2022-08-03T14:18:15.765Z,96502.69
2022-08-03T14:20:57.954Z,96507.75
2022-08-03T14:23:27.648Z,96502.47
2022-08-03T14:25:55.592Z,96504.38
2022-08-03T14:28:25.057Z,96510.16
2022-08-03T14:30:53.942Z,96504.53
2022-08-03T14:33:24.151Z,96503.72
2022-08-03T14:35:52.888Z,96488.50
2022-08-03T14:38:22.111Z,96488.84
2022-08-03T14:40:50.312Z,96500.16
2022-08-03T14:43:20.336Z,96493.13
2022-08-03T14:45:52.126Z,96485.78
2022-08-03T14:50:30.922Z,96483.47
2022-08-03T14:51:10.240Z,96488.22
2022-08-03T14:53:38.470Z,96485.38
2022-08-03T14:56:10.502Z,96481.44
2022-08-03T14:58:39.129Z,96487.97
2022-08-03T15:02:02.634Z,96481.34
2022-08-03T15:03:55.311Z,96470.66
2022-08-03T15:06:25.554Z,96470.66
2022-08-03T15:09:21.353Z,96468.63
2022-08-03T15:11:42.469Z,96462.25
2022-08-03T15:14:10.583Z,96469.97
2022-08-03T15:16:41.839Z,96469.56
2022-08-03T15:20:01.173Z,96465.97
2022-08-03T15:22:01.016Z,96466.91
2022-08-03T15:24:30.340Z,96452.84
2022-08-03T15:26:58.554Z,96457.66
2022-08-03T15:30:09.519Z,96449.63
2022-08-03T15:32:15.253Z,96443.63
2022-08-03T15:34:50.553Z,96443.88
2022-08-03T15:37:21.062Z,96438.66
2022-08-03T15:39:59.308Z,96440.78
2022-08-03T15:42:29.612Z,96440.31
2022-08-03T15:44:58.039Z,96438.91
2022-08-03T15:47:26.245Z,96436.84
2022-08-03T15:49:54.165Z,96441.78
2022-08-03T15:52:23.473Z,96439.94
2022-08-03T15:54:51.465Z,96441.28
2022-08-03T15:57:19.499Z,96428.91
2022-08-03T15:59:47.856Z,96435.75
2022-08-03T16:02:16.183Z,96433.59
2022-08-03T16:04:44.161Z,96428.72
2022-08-03T16:07:12.595Z,96425.09
2022-08-03T16:09:43.844Z,96426.25
2022-08-03T16:12:15.894Z,96423.69
2022-08-03T16:14:53.403Z,96420.38
2022-08-03T16:17:23.590Z,96412.44
2022-08-03T16:19:53.433Z,96413.25
2022-08-03T16:22:23.726Z,96423.09
2022-08-03T16:24:53.783Z,96413.25
2022-08-03T16:27:58.201Z,96415.09
2022-08-03T16:30:11.662Z,96414.28
2022-08-03T16:32:39.934Z,96410.06
2022-08-03T16:35:09.025Z,96410.28
2022-08-03T16:37:56.286Z,96415.34
2022-08-03T16:40:26.868Z,96408.09
2022-08-03T16:42:54.847Z,96414.75
2022-08-03T16:45:22.918Z,96410.00
2022-08-03T16:48:01.745Z,96405.13
2022-08-03T16:50:35.085Z,96408.59
2022-08-03T16:53:06.367Z,96404.78
2022-08-03T16:55:48.522Z,96409.84
2022-08-03T16:58:34.811Z,96410.59
2022-08-03T17:01:22.283Z,96417.00
2022-08-03T17:04:01.869Z,96405.06
2022-08-03T17:06:34.583Z,96405.88
2022-08-03T17:09:03.589Z,96418.69
2022-08-03T17:11:43.908Z,96419.66
2022-08-03T17:14:13.661Z,96415.19
2022-08-03T17:16:51.879Z,96419.00
2022-08-03T17:19:23.636Z,96420.84
2022-08-03T17:21:58.222Z,96420.50
2022-08-03T17:24:32.158Z,96418.75
2022-08-03T17:27:08.868Z,96421.97
2022-08-03T17:29:45.280Z,96425.28
2022-08-03T17:32:18.415Z,96426.44
2022-08-03T17:34:49.886Z,96438.31
2022-08-03T17:37:49.896Z,96429.47
2022-08-03T17:40:11.767Z,96432.59
2022-08-03T17:42:50.788Z,96429.75
2022-08-03T17:45:19.200Z,96440.56
2022-08-03T17:47:57.579Z,96436.19
2022-08-03T17:50:35.575Z,96439.16
2022-08-03T17:53:15.240Z,96440.88
2022-08-03T17:56:36.159Z,96452.81
2022-08-03T17:59:08.664Z,96450.59
2022-08-03T18:02:12.224Z,96446.13
2022-08-03T18:05:00.489Z,96448.97
2022-08-03T18:07:41.200Z,96452.09
2022-08-03T18:10:12.087Z,96458.03
2022-08-03T18:12:51.895Z,96455.16
2022-08-03T18:15:28.674Z,96458.03
2022-08-03T18:18:02.649Z,96456.38
2022-08-03T18:20:40.921Z,96461.72
2022-08-03T18:23:11.838Z,96460.28
2022-08-03T18:25:58.272Z,96455.47
2022-08-03T18:28:27.907Z,96459.97
2022-08-03T18:30:58.903Z,96457.41
2022-08-03T18:34:16.748Z,96457.84
2022-08-03T18:36:21.720Z,96453.63
2022-08-03T18:38:53.956Z,96454.34
2022-08-03T18:41:32.232Z,96459.06
2022-08-03T18:44:07.845Z,96461.06
2022-08-03T18:47:07.534Z,96456.31
2022-08-03T18:49:53.904Z,96455.72
2022-08-03T18:52:30.451Z,96465.41
2022-08-03T18:58:05.302Z,96456.53
2022-08-03T19:00:54.283Z,96452.66
2022-08-03T19:03:43.021Z,96448.38
2022-08-03T19:06:20.273Z,96449.44
2022-08-03T19:08:51.324Z,96461.84
2022-08-03T19:11:28.121Z,96458.97
2022-08-03T19:13:59.453Z,96460.81
2022-08-03T19:16:32.934Z,96466.69
2022-08-03T19:19:04.060Z,96465.16
2022-08-03T19:21:35.610Z,96463.94
2022-08-03T19:24:09.750Z,96460.50
2022-08-03T19:26:39.687Z,96465.81
2022-08-03T19:29:15.071Z,96462.56
2022-08-03T19:31:59.233Z,96460.19
2022-08-03T19:34:32.685Z,96470.97
2022-08-03T19:37:01.721Z,96463.63
2022-08-03T19:39:31.705Z,96469.06
2022-08-03T19:42:20.182Z,96473.88
2022-08-03T19:44:54.836Z,96474.44
2022-08-03T19:47:29.090Z,96471.13
2022-08-03T19:50:05.778Z,96468.47
2022-08-03T19:52:50.028Z,96474.00
2022-08-03T19:55:19.049Z,96475.50
2022-08-03T19:57:49.089Z,96470.28
2022-08-03T20:00:26.405Z,96470.38
2022-08-03T20:02:55.043Z,96474.59
2022-08-03T20:05:25.171Z,96472.56
2022-08-03T20:07:54.595Z,96473.25
2022-08-03T20:10:24.277Z,96475.13
2022-08-03T20:12:53.336Z,96472.66
2022-08-03T20:15:22.387Z,96473.94
2022-08-03T20:18:00.459Z,96471.91
2022-08-03T20:20:32.160Z,96475.69
2022-08-03T20:23:01.845Z,96484.00
2022-08-03T20:25:37.886Z,96482.66
2022-08-03T20:28:14.175Z,96479.13
2022-08-03T20:30:44.429Z,96483.16
2022-08-03T20:33:18.973Z,96488.00
2022-08-03T20:35:50.165Z,96485.59
2022-08-03T20:38:19.541Z,96489.38
2022-08-03T20:40:48.645Z,96483.16
2022-08-03T20:43:16.994Z,96486.50
2022-08-03T20:46:00.810Z,96487.84
2022-08-03T20:48:37.250Z,96489.72
2022-08-03T20:51:11.097Z,96484.59
2022-08-03T20:54:00.505Z,96493.13
2022-08-03T20:56:33.560Z,96483.81
2022-08-03T20:59:03.853Z,96492.16
2022-08-03T21:01:36.433Z,96485.97
2022-08-03T21:04:06.979Z,96494.53
2022-08-03T21:06:42.916Z,96493.13
2022-08-03T21:09:19.603Z,96497.91
2022-08-03T21:11:51.189Z,96496.66
2022-08-03T21:13:10.335Z,96456.44
2022-08-03T21:14:24.118Z,96486.94
2022-08-03T21:16:53.144Z,96499.03
2022-08-03T21:19:23.100Z,96497.13
2022-08-03T21:21:52.978Z,96483.63
2022-08-03T21:24:24.625Z,96486.38
2022-08-03T21:26:55.551Z,96484.69
2022-08-03T21:29:24.284Z,96482.63
2022-08-03T21:31:52.678Z,96481.00
2022-08-03T21:34:21.744Z,96484.31
2022-08-03T21:36:50.263Z,96480.75
2022-08-03T21:39:19.751Z,96477.22
2022-08-03T21:41:47.696Z,96479.31
2022-08-03T21:44:18.442Z,96472.09
2022-08-03T21:46:59.260Z,96479.78
2022-08-03T21:50:07.263Z,96481.03
2022-08-03T21:52:19.762Z,96475.88
2022-08-03T21:54:50.802Z,96479.59
2022-08-03T21:57:20.631Z,96474.66
2022-08-03T21:59:54.198Z,96479.25
2022-08-03T22:02:26.626Z,96476.13
2022-08-03T22:04:56.350Z,96472.81
2022-08-03T22:07:26.816Z,96480.50
2022-08-03T22:09:57.475Z,96471.38
2022-08-03T22:12:27.130Z,96478.88
2022-08-03T22:15:01.231Z,96474.25
2022-08-03T22:17:54.573Z,96482.78
2022-08-03T22:20:20.058Z,96480.53
2022-08-03T22:22:55.470Z,96486.13
2022-08-03T22:25:29.815Z,96477.63
2022-08-03T22:27:59.556Z,96472.00
2022-08-03T22:30:28.026Z,96487.16
2022-08-03T22:32:57.648Z,96480.75
2022-08-03T22:35:27.221Z,96473.88
2022-08-03T22:37:58.247Z,96474.72
2022-08-03T22:40:28.028Z,96470.56
2022-08-03T22:42:56.167Z,96475.97
2022-08-03T22:46:06.430Z,96478.03
2022-08-03T22:48:12.290Z,96479.69
2022-08-03T22:50:40.682Z,96481.97
2022-08-03T22:53:08.916Z,96480.94
2022-08-03T22:55:38.436Z,96480.88
2022-08-03T22:58:06.327Z,96482.13
2022-08-03T23:00:34.416Z,96477.53
2022-08-03T23:03:03.586Z,96481.69
2022-08-03T23:06:00.839Z,96492.88
2022-08-03T23:08:26.516Z,96481.69
2022-08-03T23:11:01.412Z,96491.84
2022-08-03T23:13:32.139Z,96484.75
2022-08-03T23:16:01.818Z,96488.09
2022-08-03T23:18:36.748Z,96489.50
2022-08-03T23:21:11.270Z,96489.47
2022-08-03T23:23:44.592Z,96490.72
2022-08-03T23:26:14.795Z,96493.41
2022-08-03T23:28:47.696Z,96488.44
2022-08-03T23:31:16.355Z,96497.72
2022-08-03T23:33:46.003Z,96496.03
2022-08-03T23:36:30.888Z,96491.25
2022-08-03T23:39:01.968Z,96495.41
2022-08-03T23:41:31.955Z,96498.09
2022-08-03T23:44:02.167Z,96497.00
2022-08-03T23:46:32.162Z,96495.53
2022-08-03T23:49:01.097Z,96495.53
2022-08-03T23:51:39.913Z,96488.06
2022-08-03T23:54:17.158Z,96498.00
2022-08-03T23:56:55.439Z,96493.03
2022-08-03T23:59:32.173Z,96487.81
